Horning, Denmark
Current Conditions -  °F | °C
As of 11:50 PM on Tuesday 21 Oct 2014 (Local Time) from EKAH Reporting Station
Drizzle Drizzle  
Wind Chill: 54°   Ceiling: 300
Heat Index: 54°   Visibility: 2.6mi
Dew Point: 50°   Wind: 10mph
Humidity: 88%   Direction: 140°SE
Pressure: 29.32"   Gusts: NA
Location:  56.09°N, 10.04°E
Report Text: EKAH 212150Z AUTO 14009KT 100V180 4200NDV +DZ BKN003///12/10 Q0993 RERA
Loading
Personal Weather Stations






























Interactive Weather Map
Tropical Storm Tracking
New forecast layout! Learn more

10-Day Weather Forecast

Advertisements
Track Severe Weather on mobile